Time;durP1;ratioP1;P1;durP2;ratioP2;P2;SDS_P1;SDS_P2;PMS_P1;PMS_P2;Temp;Humidity;BMP_temperature;BMP_pressure;BME280_temperature;BME280_humidity;BME280_pressure;Samples;Min_cycle;Max_cycle;Signal;HPM_P1;HPM_P2
2023/05/22 00:02:42;;;;;;;20.38;14.30;;;;;;;17.89;88.66;101300.75;5099259;28;20056;-70
2023/05/22 00:05:29;;;;;;;22.70;15.35;;;;;;;17.89;88.91;101301.63;5104124;28;20052;-71
2023/05/22 00:08:14;;;;;;;23.13;15.30;;;;;;;17.87;89.39;101297.31;5101599;28;20520;-70
2023/05/22 00:10:59;;;;;;;19.95;15.65;;;;;;;17.86;88.69;101299.09;5105568;28;20134;-70
2023/05/22 00:13:45;;;;;;;22.52;15.13;;;;;;;17.85;89.19;101297.41;5106781;28;20052;-71
2023/05/22 00:16:30;;;;;;;21.60;15.82;;;;;;;17.86;89.08;101304.44;5106212;28;20126;-71
2023/05/22 00:19:17;;;;;;;20.08;15.85;;;;;;;17.87;89.18;101299.97;5105922;28;20154;-71
2023/05/22 00:22:02;;;;;;;24.10;16.70;;;;;;;17.89;89.27;101295.44;5104001;28;20769;-71
2023/05/22 00:24:47;;;;;;;21.02;16.33;;;;;;;17.90;89.42;101292.66;5105654;28;20052;-71
2023/05/22 00:27:33;;;;;;;24.95;16.10;;;;;;;17.92;89.51;101293.47;5104920;28;20052;-71
2023/05/22 00:30:18;;;;;;;22.63;16.23;;;;;;;17.88;89.60;101283.88;5106798;28;20052;-71
2023/05/22 00:33:04;;;;;;;24.23;16.80;;;;;;;17.87;89.51;101286.66;5103852;28;20052;-70
2023/05/22 00:35:50;;;;;;;24.60;17.25;;;;;;;17.83;89.80;101285.94;5106964;28;20524;-70
2023/05/22 00:38:36;;;;;;;23.30;17.17;;;;;;;17.81;89.37;101285.16;5106174;28;20067;-70
2023/05/22 00:41:22;;;;;;;25.55;17.88;;;;;;;17.81;89.34;101286.00;5106938;28;20062;-70
2023/05/22 00:44:08;;;;;;;24.67;17.63;;;;;;;17.81;89.50;101282.50;5121669;28;20758;-70
2023/05/22 00:46:53;;;;;;;23.38;17.42;;;;;;;17.79;89.57;101285.25;5116547;28;20048;-70
2023/05/22 00:49:40;;;;;;;25.02;18.30;;;;;;;17.78;89.18;101286.19;5107167;28;20060;-70
2023/05/22 00:52:25;;;;;;;24.20;18.40;;;;;;;17.75;89.44;101285.50;5104346;28;20063;-70
2023/05/22 00:55:13;;;;;;;27.45;18.25;;;;;;;17.72;89.68;101293.66;5091732;28;20048;-70
2023/05/22 00:58:06;;;;;;;28.33;18.85;;;;;;;17.68;89.87;101290.31;5085887;28;20056;-70
2023/05/22 01:00:52;;;;;;;27.00;18.13;;;;;;;17.65;90.48;101279.78;5097753;28;20045;-71
2023/05/22 01:03:46;;;;;;;28.70;18.55;;;;;;;17.62;90.59;101287.94;5090988;28;20087;-71
2023/05/22 01:06:32;;;;;;;27.40;18.25;;;;;;;17.58;90.48;101289.91;5076253;28;20552;-71
2023/05/22 01:09:18;;;;;;;27.20;18.23;;;;;;;17.54;90.74;101283.03;5091995;28;21005;-71
2023/05/22 01:12:19;;;;;;;28.40;19.55;;;;;;;17.50;91.25;101279.66;5098600;28;20044;-71
2023/05/22 01:15:25;;;;;;;28.83;19.85;;;;;;;17.46;91.45;101282.56;5108638;28;20082;-71
2023/05/22 01:18:25;;;;;;;31.63;20.80;;;;;;;17.42;91.55;101271.19;5107600;27;20067;-71
2023/05/22 01:21:45;;;;;;;28.90;20.50;;;;;;;17.39;91.84;101280.22;5100657;28;20559;-71
2023/05/22 01:25:15;;;;;;;32.70;22.20;;;;;;;17.35;91.88;101275.97;5107612;28;20056;-71
2023/05/22 01:28:40;;;;;;;29.52;21.55;;;;;;;17.29;91.77;101276.31;5097968;27;20066;-71
2023/05/22 01:31:30;;;;;;;29.63;21.98;;;;;;;17.25;91.75;101274.75;5090771;28;20052;-71
2023/05/22 01:34:18;;;;;;;31.40;21.67;;;;;;;17.22;91.82;101269.59;5104724;28;20126;-72
2023/05/22 01:37:08;;;;;;;32.38;21.73;;;;;;;17.21;91.76;101274.03;5105566;28;20914;-71
2023/05/22 01:39:55;;;;;;;36.25;22.10;;;;;;;17.20;92.11;101272.31;5090446;28;20056;-71
2023/05/22 01:42:41;;;;;;;29.17;20.73;;;;;;;17.21;92.87;101275.84;5108266;28;20169;-71
2023/05/22 01:45:26;;;;;;;29.33;20.10;;;;;;;17.15;93.14;101282.34;5096617;28;20876;-71
2023/05/22 01:48:11;;;;;;;27.35;19.33;;;;;;;17.06;93.10;101274.84;5106276;28;20055;-71
2023/05/22 01:51:07;;;;;;;27.92;19.33;;;;;;;16.99;93.03;101268.94;5109046;28;20122;-71
2023/05/22 01:54:09;;;;;;;26.15;19.38;;;;;;;16.94;93.25;101272.78;5086492;27;20503;-71
2023/05/22 01:57:26;;;;;;;27.05;18.83;;;;;;;16.93;93.66;101269.25;5109425;28;20432;-71
2023/05/22 02:00:15;;;;;;;27.48;20.08;;;;;;;16.88;93.99;101280.13;5104391;28;20055;-71
2023/05/22 02:03:11;;;;;;;28.50;18.55;;;;;;;16.86;93.92;101271.34;5103554;28;20083;-71
2023/05/22 02:06:03;;;;;;;29.05;20.05;;;;;;;16.84;93.82;101259.06;5106886;28;20052;-71
2023/05/22 02:08:51;;;;;;;29.80;19.67;;;;;;;16.84;94.07;101264.38;5082787;28;20045;-71
2023/05/22 02:11:40;;;;;;;28.70;19.70;;;;;;;16.82;93.99;101264.44;5082037;28;20055;-70
2023/05/22 02:14:28;;;;;;;26.20;18.83;;;;;;;16.83;93.96;101260.00;5100123;28;20052;-70
2023/05/22 02:17:16;;;;;;;29.92;20.10;;;;;;;16.79;94.10;101258.41;5106516;27;20060;-71
2023/05/22 02:20:02;;;;;;;31.55;20.02;;;;;;;16.74;94.23;101261.31;5094209;28;20047;-71
2023/05/22 02:22:48;;;;;;;28.63;20.35;;;;;;;16.72;94.60;101256.06;5106557;28;20056;-70
2023/05/22 02:25:33;;;;;;;30.55;21.20;;;;;;;16.69;95.41;101250.88;5097716;28;20135;-70
2023/05/22 02:28:18;;;;;;;30.90;20.88;;;;;;;16.66;95.48;101248.38;5091174;28;20053;-71
2023/05/22 02:31:04;;;;;;;29.85;20.08;;;;;;;16.66;96.28;101244.84;5086917;28;20966;-71
2023/05/22 02:33:50;;;;;;;30.42;20.98;;;;;;;16.60;96.23;101246.00;5087663;28;20975;-70
2023/05/22 02:36:37;;;;;;;30.30;21.25;;;;;;;16.55;95.67;101240.03;5092933;28;20151;-70
2023/05/22 02:39:22;;;;;;;30.00;20.27;;;;;;;16.54;96.26;101251.63;5091427;28;20610;-71
2023/05/22 02:42:08;;;;;;;31.77;21.42;;;;;;;16.52;96.37;101248.19;5079438;28;20051;-71
2023/05/22 02:44:53;;;;;;;29.52;20.45;;;;;;;16.46;96.03;101244.03;5081670;28;20044;-72
2023/05/22 02:47:38;;;;;;;30.35;21.10;;;;;;;16.43;96.00;101242.34;5105913;28;20139;-72
2023/05/22 02:50:23;;;;;;;30.75;20.20;;;;;;;16.39;96.05;101239.94;5107795;28;20092;-72
2023/05/22 02:53:09;;;;;;;29.23;20.80;;;;;;;16.34;96.79;101239.31;5102100;28;20052;-71
2023/05/22 02:55:57;;;;;;;28.13;20.70;;;;;;;16.23;96.88;101227.38;5107033;28;20055;-71
2023/05/22 02:58:43;;;;;;;30.85;21.88;;;;;;;16.14;97.00;101228.66;5083548;28;20048;-70
2023/05/22 03:01:29;;;;;;;32.95;21.65;;;;;;;16.09;96.87;101229.81;5105036;28;20075;-71
2023/05/22 03:04:15;;;;;;;29.52;21.40;;;;;;;16.06;97.31;101238.81;5092221;28;20070;-71
2023/05/22 03:07:00;;;;;;;30.13;21.90;;;;;;;16.00;97.64;101239.13;5107826;28;20135;-71
2023/05/22 03:09:46;;;;;;;33.03;22.77;;;;;;;15.95;97.66;101234.00;5105607;28;20147;-71
2023/05/22 03:12:32;;;;;;;30.45;22.00;;;;;;;15.90;97.65;101233.34;5098213;28;20056;-70
2023/05/22 03:15:18;;;;;;;34.72;21.98;;;;;;;15.85;97.99;101238.03;5086908;28;20512;-70
2023/05/22 03:18:04;;;;;;;34.17;21.90;;;;;;;15.80;98.15;101240.88;5080037;28;20519;-70
2023/05/22 03:20:50;;;;;;;30.67;21.15;;;;;;;15.74;98.65;101240.28;5070635;28;20099;-70
2023/05/22 03:23:35;;;;;;;31.13;21.27;;;;;;;15.68;99.00;101241.44;5081663;28;20053;-70
2023/05/22 03:26:20;;;;;;;33.90;21.50;;;;;;;15.62;99.24;101233.72;5086774;28;20150;-71
2023/05/22 03:29:06;;;;;;;33.05;21.67;;;;;;;15.58;99.43;101237.47;5071462;28;20052;-71
2023/05/22 03:31:56;;;;;;;30.88;22.15;;;;;;;15.53;99.73;101235.00;5072091;28;20056;-71
2023/05/22 03:34:42;;;;;;;34.22;22.90;;;;;;;15.50;99.96;101233.38;5068330;28;20083;-72
2023/05/22 03:37:29;;;;;;;32.95;22.55;;;;;;;15.46;100.00;101228.25;5064848;28;20107;-72
2023/05/22 03:40:14;;;;;;;31.98;21.48;;;;;;;15.43;100.00;101228.38;5085492;28;20053;-72
2023/05/22 03:43:00;;;;;;;36.63;22.73;;;;;;;15.41;100.00;101227.59;5078033;28;20928;-72
2023/05/22 03:45:46;;;;;;;35.70;23.30;;;;;;;15.40;100.00;101229.38;5084437;28;20123;-72
2023/05/22 03:48:33;;;;;;;33.10;23.13;;;;;;;15.40;100.00;101231.16;5083993;28;20086;-71
2023/05/22 03:51:18;;;;;;;31.70;22.60;;;;;;;15.41;100.00;101228.47;5081757;28;20053;-72
2023/05/22 03:54:04;;;;;;;31.65;21.95;;;;;;;15.43;100.00;101234.53;5059173;28;20052;-72
2023/05/22 03:56:50;;;;;;;34.03;23.10;;;;;;;15.42;100.00;101234.63;5085519;28;20084;-72
2023/05/22 03:59:36;;;;;;;37.45;23.35;;;;;;;15.41;100.00;101224.94;5085716;28;20135;-71
2023/05/22 04:02:25;;;;;;;36.83;22.92;;;;;;;15.40;100.00;101234.69;5079491;28;20052;-71
2023/05/22 04:05:10;;;;;;;38.75;24.55;;;;;;;15.39;100.00;101238.28;5082667;28;20049;-71
2023/05/22 04:07:56;;;;;;;38.45;23.80;;;;;;;15.40;100.00;101232.03;5080941;28;20048;-71
2023/05/22 04:10:45;;;;;;;38.97;23.88;;;;;;;15.37;100.00;101230.38;5071795;28;20052;-71
2023/05/22 04:13:31;;;;;;;36.17;24.13;;;;;;;15.36;100.00;101233.09;5086981;28;20494;-70
2023/05/22 04:16:17;;;;;;;49.75;26.05;;;;;;;15.32;100.00;101234.16;5086010;28;20056;-70
2023/05/22 04:19:03;;;;;;;50.25;25.15;;;;;;;15.29;100.00;101237.81;5085518;28;20052;-71
2023/05/22 04:21:49;;;;;;;36.65;24.27;;;;;;;15.27;100.00;101237.00;5063497;28;20049;-70
2023/05/22 04:24:34;;;;;;;36.33;25.15;;;;;;;15.27;100.00;101230.84;5075548;28;20087;-70
2023/05/22 04:27:21;;;;;;;37.00;24.00;;;;;;;15.30;100.00;101231.56;5079428;28;20152;-70
2023/05/22 04:30:09;;;;;;;35.50;23.88;;;;;;;15.31;100.00;101228.00;5052465;28;20128;-70
2023/05/22 04:32:57;;;;;;;40.00;24.90;;;;;;;15.31;100.00;101227.13;5078159;28;20052;-71
2023/05/22 04:35:43;;;;;;;33.42;23.67;;;;;;;15.36;100.00;101238.41;5080023;28;20421;-71
2023/05/22 04:38:28;;;;;;;40.83;25.27;;;;;;;15.39;100.00;101240.94;5068715;28;20516;-71
2023/05/22 04:41:16;;;;;;;34.50;24.42;;;;;;;15.45;100.00;101240.66;5084599;28;20048;-71
2023/05/22 04:44:02;;;;;;;41.72;25.77;;;;;;;15.44;100.00;101233.63;5069721;28;20052;-70
2023/05/22 04:46:49;;;;;;;48.33;26.05;;;;;;;15.41;100.00;101231.13;5085298;28;20052;-70
2023/05/22 04:49:34;;;;;;;49.90;27.13;;;;;;;15.42;100.00;101229.31;5085586;28;20052;-75
2023/05/22 04:52:20;;;;;;;46.75;27.00;;;;;;;15.42;100.00;101237.28;5085757;28;20056;-76
2023/05/22 04:55:07;;;;;;;72.30;27.73;;;;;;;15.43;100.00;101237.19;5070228;28;20045;-74
2023/05/22 04:57:52;;;;;;;81.55;26.90;;;;;;;15.42;100.00;101240.78;5057875;28;20867;-73
2023/05/22 05:00:37;;;;;;;90.07;28.52;;;;;;;15.40;100.00;101241.78;5071068;28;20045;-76
2023/05/22 05:03:26;;;;;;;102.72;27.25;;;;;;;15.45;100.00;101247.78;5062594;28;20061;-76
2023/05/22 05:06:11;;;;;;;52.47;27.17;;;;;;;15.49;100.00;101246.69;5065570;28;20239;-74
2023/05/22 05:08:56;;;;;;;74.35;26.77;;;;;;;15.49;100.00;101257.31;5061023;28;20049;-74
2023/05/22 05:11:42;;;;;;;82.00;28.05;;;;;;;15.50;100.00;101254.63;5066409;28;20112;-75
2023/05/22 05:14:27;;;;;;;65.65;25.13;;;;;;;15.51;100.00;101263.44;5064296;28;20120;-74
2023/05/22 05:17:13;;;;;;;87.05;25.33;;;;;;;15.46;100.00;101260.13;5069589;28;20049;-73
2023/05/22 05:19:59;;;;;;;69.30;25.90;;;;;;;15.43;100.00;101260.25;5101368;28;20048;-74
2023/05/22 05:22:45;;;;;;;59.58;27.05;;;;;;;15.40;100.00;101255.94;5103224;27;20143;-69
2023/05/22 05:25:34;;;;;;;78.65;25.00;;;;;;;15.42;100.00;101271.81;5100990;28;20051;-70
2023/05/22 05:28:20;;;;;;;115.50;24.75;;;;;;;15.38;100.00;101269.28;5121747;28;20133;-70
2023/05/22 05:31:06;;;;;;;75.22;24.77;;;;;;;15.36;100.00;101270.28;5112257;28;20056;-70
2023/05/22 05:34:23;;;;;;;61.63;25.95;;;;;;;15.35;100.00;101274.75;5100959;27;20075;-70
2023/05/22 05:37:35;;;;;;;92.80;21.15;;;;;;;15.35;100.00;101277.41;5093257;28;20135;-70
2023/05/22 05:40:23;;;;;;;76.68;24.50;;;;;;;15.28;100.00;101267.97;5099674;27;20052;-70
2023/05/22 05:43:09;;;;;;;71.00;26.17;;;;;;;15.26;100.00;101271.63;5107344;28;20052;-69
2023/05/22 05:45:56;;;;;;;106.88;25.20;;;;;;;15.27;100.00;101265.38;5090188;27;20052;-69
2023/05/22 05:48:41;;;;;;;61.90;27.10;;;;;;;15.24;100.00;101271.69;5108148;28;20052;-69
2023/05/22 05:51:27;;;;;;;113.95;25.52;;;;;;;15.18;100.00;101278.13;5100504;28;20129;-70
2023/05/22 05:54:13;;;;;;;58.00;25.02;;;;;;;15.14;100.00;101275.66;5110674;28;20067;-70
2023/05/22 05:56:58;;;;;;;55.45;25.42;;;;;;;15.19;100.00;101286.94;5109923;28;20193;-69
2023/05/22 05:59:43;;;;;;;76.70;27.60;;;;;;;15.21;100.00;101285.09;5106887;28;20512;-69
2023/05/22 06:02:42;;;;;;;69.30;25.30;;;;;;;15.24;100.00;101290.28;5078709;27;20520;-70
2023/05/22 06:05:41;;;;;;;69.82;23.23;;;;;;;15.27;100.00;101291.94;5089838;28;20524;-70
2023/05/22 06:08:41;;;;;;;53.70;21.98;;;;;;;15.21;100.00;101293.06;5090924;28;20048;-70
2023/05/22 06:11:26;;;;;;;97.35;23.05;;;;;;;15.21;100.00;101293.06;5102524;28;20854;-70
2023/05/22 06:14:12;;;;;;;52.60;22.70;;;;;;;15.21;100.00;101304.53;5092129;28;20055;-70
2023/05/22 06:16:57;;;;;;;50.78;22.98;;;;;;;15.26;100.00;101312.31;5107490;28;20060;-70
2023/05/22 06:19:43;;;;;;;84.20;22.13;;;;;;;15.30;100.00;101307.75;5107959;27;20749;-70
2023/05/22 06:22:30;;;;;;;76.57;23.75;;;;;;;15.31;100.00;101307.69;5101664;28;20558;-70
2023/05/22 06:25:16;;;;;;;286.02;46.05;;;;;;;15.36;100.00;101308.31;5096488;28;20495;-70
2023/05/22 06:28:05;;;;;;;55.33;23.60;;;;;;;15.42;100.00;101309.00;5090324;28;20095;-70
2023/05/22 06:30:50;;;;;;;56.95;24.70;;;;;;;15.46;100.00;101305.31;5104819;28;20139;-70
2023/05/22 06:33:39;;;;;;;53.85;24.73;;;;;;;15.53;100.00;101296.97;5095759;28;20623;-70
2023/05/22 06:36:25;;;;;;;38.47;24.13;;;;;;;15.57;100.00;101310.13;5091931;28;20052;-70
2023/05/22 06:39:11;;;;;;;48.85;25.40;;;;;;;15.65;100.00;101303.56;5093695;28;20444;-70
2023/05/22 06:42:22;;;;;;;48.92;26.15;;;;;;;15.69;100.00;101306.94;5108761;28;20060;-70
2023/05/22 06:45:27;;;;;;;49.67;28.25;;;;;;;15.74;100.00;101320.03;5096445;28;20539;-70
2023/05/22 06:48:34;;;;;;;45.90;25.88;;;;;;;15.83;100.00;101319.59;5093454;28;20055;-70
2023/05/22 06:51:31;;;;;;;46.33;24.83;;;;;;;15.84;99.53;101326.69;5091778;28;20051;-70
2023/05/22 06:54:29;;;;;;;44.03;25.23;;;;;;;15.85;99.35;101323.09;5091264;28;20415;-70
2023/05/22 06:57:15;;;;;;;40.80;24.17;;;;;;;15.90;99.51;101320.22;5107659;28;20443;-70
2023/05/22 07:00:01;;;;;;;34.88;23.40;;;;;;;15.95;98.56;101323.53;5091562;28;20040;-70
2023/05/22 07:03:07;;;;;;;36.53;23.02;;;;;;;16.03;98.94;101331.16;5098098;28;20044;-70
2023/05/22 07:06:02;;;;;;;;;;;;;;;16.08;98.31;101329.16;5106434;28;20670;-71
2023/05/22 07:08:47;;;;;;;33.45;23.00;;;;;;;16.09;98.41;101333.53;5088802;28;19924;-70
2023/05/22 07:11:36;;;;;;;120.38;26.92;;;;;;;16.17;97.76;101336.72;5088811;28;20189;-70
2023/05/22 07:14:22;;;;;;;36.53;21.40;;;;;;;16.20;96.84;101327.75;5106253;28;20068;-70
2023/05/22 07:17:07;;;;;;;43.80;21.65;;;;;;;16.26;97.21;101340.75;5092914;28;20486;-70
2023/05/22 07:19:58;;;;;;;33.80;20.92;;;;;;;16.31;96.71;101344.06;5103583;28;20052;-70
2023/05/22 07:22:45;;;;;;;35.72;20.63;;;;;;;16.32;96.28;101334.28;5092014;28;20060;-69
2023/05/22 07:25:31;;;;;;;28.83;21.95;;;;;;;16.28;95.87;101342.41;5087531;28;20053;-70
2023/05/22 07:28:17;;;;;;;29.63;21.60;;;;;;;16.32;96.67;101351.13;5085839;28;20057;-69
2023/05/22 07:31:09;;;;;;;47.50;22.95;;;;;;;16.37;96.90;101354.41;5083535;28;20052;-70
2023/05/22 07:33:55;;;;;;;34.40;22.48;;;;;;;16.50;96.56;101354.69;5086106;28;20167;-70
2023/05/22 07:36:40;;;;;;;44.15;23.23;;;;;;;16.61;95.89;101351.53;5094936;28;20060;-69
2023/05/22 07:39:26;;;;;;;36.15;22.98;;;;;;;16.72;95.55;101353.69;5072243;28;20139;-69
2023/05/22 07:42:13;;;;;;;30.05;22.05;;;;;;;16.85;95.37;101356.59;5093034;28;20060;-69
2023/05/22 07:45:06;;;;;;;28.77;21.23;;;;;;;16.95;94.64;101352.59;5095310;28;20079;-70
2023/05/22 07:47:51;;;;;;;29.60;22.23;;;;;;;17.01;93.95;101356.75;5107137;28;20052;-69
2023/05/22 07:50:44;;;;;;;29.67;21.67;;;;;;;17.12;93.81;101361.56;5106434;28;20060;-69
2023/05/22 07:53:30;;;;;;;27.58;20.80;;;;;;;17.23;93.27;101372.56;5093102;28;20055;-69
2023/05/22 07:56:18;;;;;;;29.85;21.88;;;;;;;17.35;92.70;101363.06;5090978;28;20131;-71
2023/05/22 07:59:07;;;;;;;36.90;21.48;;;;;;;17.53;91.92;101363.94;5092539;28;20048;-69
2023/05/22 08:01:53;;;;;;;27.17;21.25;;;;;;;17.76;90.70;101364.53;5107627;28;20540;-71
2023/05/22 08:04:41;;;;;;;29.92;21.75;;;;;;;18.01;90.55;101366.78;5107024;28;21525;-69
2023/05/22 08:07:27;;;;;;;33.80;23.33;;;;;;;18.37;88.15;101362.22;5108562;28;20056;-69
2023/05/22 08:10:16;;;;;;;27.90;21.60;;;;;;;18.55;86.76;101371.91;5108063;28;20044;-69
2023/05/22 08:13:05;;;;;;;36.03;23.67;;;;;;;18.63;86.37;101366.09;5107520;28;20066;-69
2023/05/22 08:15:50;;;;;;;32.55;23.33;;;;;;;18.81;85.96;101372.22;5107472;28;20063;-68
2023/05/22 08:18:44;;;;;;;32.60;23.33;;;;;;;18.74;85.10;101362.84;5107009;28;20589;-71
2023/05/22 08:21:33;;;;;;;37.35;23.25;;;;;;;18.77;85.44;101365.34;5107295;28;20076;-71
2023/05/22 08:24:18;;;;;;;36.65;24.42;;;;;;;18.89;84.30;101367.31;5107658;28;20051;-71
2023/05/22 08:27:04;;;;;;;34.67;24.77;;;;;;;18.90;83.98;101368.19;5100311;28;20064;-70
2023/05/22 08:29:50;;;;;;;34.92;24.15;;;;;;;19.02;83.68;101363.97;5105435;28;20487;-71
2023/05/22 08:32:36;;;;;;;35.97;24.55;;;;;;;19.16;83.09;101364.03;5105904;28;20110;-71
2023/05/22 08:35:21;;;;;;;58.95;25.08;;;;;;;19.34;83.46;101359.41;5103854;27;20052;-71
2023/05/22 08:38:06;;;;;;;38.30;25.90;;;;;;;19.54;82.77;101354.69;5104273;28;20538;-71
2023/05/22 08:40:56;;;;;;;36.20;24.25;;;;;;;19.82;80.81;101359.22;5106642;28;20162;-71
2023/05/22 08:43:42;;;;;;;32.88;24.30;;;;;;;20.01;79.84;101356.31;5106315;28;20051;-71
2023/05/22 08:46:29;;;;;;;35.33;24.70;;;;;;;20.05;79.02;101345.41;5105815;28;20060;-71
2023/05/22 08:49:16;;;;;;;37.80;24.98;;;;;;;20.27;78.13;101347.59;5108091;28;20047;-70
2023/05/22 08:52:12;;;;;;;32.90;22.13;;;;;;;20.53;76.93;101355.78;5103634;28;21110;-70
2023/05/22 08:55:00;;;;;;;30.52;22.52;;;;;;;20.57;75.79;101347.44;5103574;28;20147;-70
2023/05/22 08:57:46;;;;;;;45.30;24.48;;;;;;;20.61;75.79;101354.34;5103098;28;20044;-71
2023/05/22 09:00:32;;;;;;;36.08;24.23;;;;;;;20.72;76.37;101344.75;5087645;28;20057;-71
2023/05/22 09:03:20;;;;;;;40.97;26.13;;;;;;;20.67;76.52;101344.16;5094679;28;20516;-70
2023/05/22 09:06:09;;;;;;;38.55;25.58;;;;;;;20.82;76.49;101345.00;5108101;27;20055;-70
2023/05/22 09:09:03;;;;;;;46.72;25.23;;;;;;;21.07;76.38;101347.78;5107286;28;20044;-71
2023/05/22 09:11:49;;;;;;;38.40;24.42;;;;;;;21.16;74.53;101348.13;5091944;28;20060;-70
2023/05/22 09:14:42;;;;;;;35.53;24.38;;;;;;;21.17;75.19;101347.19;5098276;28;20052;-70
2023/05/22 09:17:27;;;;;;;33.35;23.77;;;;;;;21.32;75.83;101345.28;5107172;28;20098;-70
2023/05/22 09:20:14;;;;;;;41.47;24.38;;;;;;;21.51;75.17;101350.25;5107869;27;20048;-70
2023/05/22 09:23:01;;;;;;;34.50;23.50;;;;;;;21.57;72.96;101350.66;5109129;28;20492;-71
2023/05/22 09:25:46;;;;;;;36.13;22.60;;;;;;;21.61;73.49;101346.00;5109785;28;20524;-70
2023/05/22 09:28:35;;;;;;;49.63;23.77;;;;;;;21.74;73.70;101347.81;5090806;28;20063;-71
2023/05/22 09:31:20;;;;;;;33.13;23.05;;;;;;;21.83;72.04;101350.72;5090514;28;20053;-70
2023/05/22 09:34:09;;;;;;;33.40;23.73;;;;;;;21.81;72.27;101347.28;5089999;28;20056;-71
2023/05/22 09:37:02;;;;;;;31.73;20.95;;;;;;;21.84;71.25;101344.41;5110107;28;20048;-71
2023/05/22 09:39:50;;;;;;;37.67;24.30;;;;;;;21.84;71.80;101347.09;5103516;28;20048;-70
2023/05/22 09:42:35;;;;;;;30.92;22.50;;;;;;;21.92;71.58;101349.22;5106405;28;20103;-70
2023/05/22 09:45:23;;;;;;;31.85;21.85;;;;;;;22.01;71.75;101347.69;5090709;28;20807;-71
2023/05/22 09:48:09;;;;;;;33.08;22.85;;;;;;;22.18;70.46;101339.28;5091146;28;20048;-71
2023/05/22 09:50:58;;;;;;;32.17;24.17;;;;;;;22.24;70.48;101329.94;5105969;28;20048;-70
2023/05/22 09:53:47;;;;;;;32.10;22.63;;;;;;;22.31;70.58;101333.94;5106941;28;20064;-70
2023/05/22 09:56:38;;;;;;;38.92;22.88;;;;;;;22.46;70.27;101333.78;5090819;28;20056;-71
2023/05/22 09:59:29;;;;;;;34.35;23.30;;;;;;;22.62;69.23;101338.91;5094911;28;20488;-70
2023/05/22 10:02:15;;;;;;;30.73;21.90;;;;;;;22.67;69.38;101331.38;5111378;28;20111;-71
2023/05/22 10:05:08;;;;;;;37.20;21.33;;;;;;;22.83;69.13;101332.91;5109087;28;20048;-70
2023/05/22 10:08:01;;;;;;;46.53;22.23;;;;;;;22.95;68.96;101324.78;5113315;28;20543;-70
2023/05/22 10:10:51;;;;;;;35.78;22.15;;;;;;;23.08;68.84;101324.72;5107332;28;20504;-71
2023/05/22 10:13:39;;;;;;;29.77;21.40;;;;;;;23.22;68.41;101315.63;5113263;28;20048;-70
2023/05/22 10:16:27;;;;;;;30.92;20.85;;;;;;;23.37;68.12;101327.03;5108330;28;20056;-71
2023/05/22 10:19:13;;;;;;;41.83;21.88;;;;;;;23.51;67.72;101317.91;5102586;28;20061;-71
2023/05/22 10:21:59;;;;;;;33.58;21.73;;;;;;;23.57;66.14;101312.03;5099799;28;20424;-70
2023/05/22 10:24:47;;;;;;;32.03;21.15;;;;;;;23.63;66.22;101316.06;5100709;28;20051;-70
2023/05/22 10:27:33;;;;;;;39.60;21.55;;;;;;;23.75;66.46;101316.09;5108000;28;20052;-70
2023/05/22 10:30:41;;;;;;;26.90;20.77;;;;;;;23.90;64.42;101309.50;5108842;27;20048;-71
2023/05/22 10:34:04;;;;;;;26.08;20.73;;;;;;;24.03;64.49;101312.09;5084613;28;20060;-69
2023/05/22 10:37:36;;;;;;;30.17;20.95;;;;;;;24.20;64.27;101308.03;5088672;28;20057;-70
2023/05/22 10:40:31;;;;;;;33.53;21.55;;;;;;;24.39;64.06;101302.00;5089160;28;20140;-70
2023/05/22 10:43:17;;;;;;;29.17;21.45;;;;;;;24.50;62.47;101304.66;5095812;28;20882;-70
2023/05/22 10:46:05;;;;;;;29.33;20.23;;;;;;;24.55;61.76;101298.06;5105314;28;20059;-70
2023/05/22 10:48:54;;;;;;;29.50;21.23;;;;;;;24.56;60.92;101307.84;5088831;28;20044;-70
2023/05/22 10:51:39;;;;;;;26.45;19.38;;;;;;;24.62;61.45;101304.63;5104103;28;20044;-70
2023/05/22 10:54:42;;;;;;;30.73;20.50;;;;;;;24.73;61.03;101304.63;5107152;28;20134;-70
2023/05/22 10:57:33;;;;;;;36.75;21.50;;;;;;;24.85;61.28;101304.59;5108916;28;20056;-70
2023/05/22 11:00:23;;;;;;;26.73;20.67;;;;;;;25.00;60.33;101310.53;5107262;28;20056;-70
2023/05/22 11:03:13;;;;;;;28.85;19.25;;;;;;;25.12;59.86;101304.94;5108328;28;20048;-71
2023/05/22 11:06:03;;;;;;;32.85;20.00;;;;;;;25.24;60.23;101300.34;5090827;28;20052;-71
2023/05/22 11:08:49;;;;;;;28.70;18.48;;;;;;;25.37;59.55;101302.00;5104142;27;20098;-70
2023/05/22 11:11:34;;;;;;;25.08;19.52;;;;;;;25.53;58.25;101298.84;5104691;27;20507;-71
2023/05/22 11:14:19;;;;;;;27.17;20.38;;;;;;;25.57;57.58;101295.75;5100912;28;20056;-70
2023/05/22 11:17:05;;;;;;;29.33;19.40;;;;;;;25.62;57.71;101289.09;5107621;28;20056;-70
2023/05/22 11:20:06;;;;;;;30.42;19.67;;;;;;;25.67;58.03;101292.25;5105061;28;20124;-70
2023/05/22 11:23:00;;;;;;;30.48;19.92;;;;;;;25.74;57.70;101288.03;5088422;28;20055;-71
2023/05/22 11:25:45;;;;;;;24.70;19.13;;;;;;;25.73;57.47;101289.88;5106888;28;20139;-70
2023/05/22 11:28:31;;;;;;;32.53;19.33;;;;;;;25.82;57.43;101290.91;5104031;28;20067;-70
2023/05/22 11:31:17;;;;;;;27.67;20.35;;;;;;;25.91;57.22;101288.38;5094752;28;20056;-70
2023/05/22 11:34:03;;;;;;;29.15;19.77;;;;;;;25.97;56.36;101288.69;5106380;28;20056;-70
2023/05/22 11:36:51;;;;;;;26.55;19.58;;;;;;;26.04;56.18;101284.44;5104838;28;20077;-70
2023/05/22 11:39:36;;;;;;;28.38;18.15;;;;;;;26.13;56.71;101287.34;5108835;28;20056;-70
2023/05/22 11:42:23;;;;;;;30.98;19.40;;;;;;;26.35;56.16;101280.88;5108277;28;20649;-71
2023/05/22 11:45:09;;;;;;;26.02;19.05;;;;;;;26.58;54.68;101286.88;5107045;27;20052;-71
2023/05/22 11:47:55;;;;;;;24.35;18.40;;;;;;;26.64;53.96;101280.88;5108875;28;20060;-71
2023/05/22 11:50:42;;;;;;;23.77;18.17;;;;;;;26.31;54.75;101282.97;5107974;28;20048;-71
2023/05/22 11:53:31;;;;;;;23.77;18.38;;;;;;;26.32;53.96;101276.56;5107817;28;20847;-70
2023/05/22 11:56:22;;;;;;;27.35;17.67;;;;;;;26.41;53.82;101277.59;5108404;28;20138;-71
2023/05/22 11:59:07;;;;;;;29.70;18.33;;;;;;;26.56;53.81;101278.03;5108051;28;20471;-71
2023/05/22 12:01:53;;;;;;;36.67;19.00;;;;;;;26.70;54.41;101276.75;5108177;28;20591;-71
2023/05/22 12:04:39;;;;;;;30.38;17.20;;;;;;;26.90;54.32;101282.19;5108793;28;20048;-71
2023/05/22 12:07:26;;;;;;;25.20;17.17;;;;;;;27.04;51.69;101272.78;5107330;28;20514;-70
2023/05/22 12:10:14;;;;;;;28.80;17.50;;;;;;;27.05;53.22;101274.50;5096145;28;20531;-71
2023/05/22 12:12:59;;;;;;;22.63;16.73;;;;;;;27.17;51.71;101275.19;5105879;28;22011;-71
2023/05/22 12:15:44;;;;;;;26.35;17.13;;;;;;;27.25;51.90;101268.06;5097185;28;20567;-70
2023/05/22 12:18:36;;;;;;;25.05;15.70;;;;;;;27.44;51.59;101277.16;5104660;28;20056;-70
2023/05/22 12:21:21;;;;;;;23.05;17.13;;;;;;;27.56;49.96;101270.56;5105020;28;20567;-71
2023/05/22 12:24:07;;;;;;;23.85;15.90;;;;;;;27.63;48.98;101267.25;5103937;28;20056;-71
2023/05/22 12:26:53;;;;;;;22.55;15.30;;;;;;;27.40;49.07;101273.84;5106135;28;20063;-71
2023/05/22 12:29:39;;;;;;;19.17;13.93;;;;;;;27.35;50.23;101269.88;5105049;28;20052;-71
2023/05/22 12:32:28;;;;;;;31.30;15.10;;;;;;;27.49;50.11;101264.03;5108010;28;20055;-71
2023/05/22 12:35:15;;;;;;;25.42;14.93;;;;;;;27.50;48.51;101265.75;5103555;27;20959;-71
2023/05/22 12:38:01;;;;;;;16.83;13.68;;;;;;;27.45;48.85;101265.31;5101952;27;20052;-72
2023/05/22 12:40:48;;;;;;;18.02;13.73;;;;;;;27.45;48.12;101262.63;5103052;28;20138;-72
2023/05/22 12:43:33;;;;;;;26.73;14.40;;;;;;;27.40;48.07;101263.03;5104235;28;20055;-72
2023/05/22 12:46:18;;;;;;;24.00;14.70;;;;;;;27.38;48.40;101262.31;5106922;28;20218;-71